Aviation Digital Data Service (ADDS)

Output produced by METARs form (0601 UTC 18 January 2018)
found at http://www.aviationweather.gov/adds/metars/
 
KALN 180555Z AUTO 22005KT 10SM CLR M08/M12 A3045 RMK AO2 T10781119 11070 21088 410471178
KALN 180535Z AUTO 22007KT 10SM CLR M07/M12 A3046 RMK AO2 T10751117
KALN 180515Z AUTO 22007KT 10SM CLR M07/M12 A3047 RMK AO2 T10751116
KALN 180455Z AUTO 22007KT 10SM CLR M08/M12 A3047 RMK AO2 T10761116
KALN 180435Z AUTO 22006KT 10SM CLR M08/M12 A3047 RMK AO2 T10841119
KALN 180415Z AUTO 22005KT 10SM CLR M08/M12 A3048 RMK AO2 T10791119
KALN 180352Z 23006KT 10SM SKC M09/M12 A3049
KALN 180256Z 23006KT 10SM SKC M08/M12 A3051
KALN 180145Z 24007KT 10SM SKC M08/M12 A3053
KALN 180048Z 24006KT 10SM SKC M07/M12 A3055